Time;durP1;ratioP1;P1;durP2;ratioP2;P2;SDS_P1;SDS_P2;PMS_P1;PMS_P2;Temp;Humidity;BMP_temperature;BMP_pressure;BME280_temperature;BME280_humidity;BME280_pressure;Samples;Min_cycle;Max_cycle;Signal;HPM_P1;HPM_P2
2022/03/19 00:00:12;;;;;;;17.55;13.52;;;;;;;15.18;31.91;95298.66;4916678;28;20494;-87
2022/03/19 00:02:37;;;;;;;16.85;13.52;;;;;;;15.19;31.92;95311.06;4917207;29;20127;-87
2022/03/19 00:05:03;;;;;;;17.35;13.27;;;;;;;15.17;31.92;95296.38;4917124;28;20899;-87
2022/03/19 00:07:29;;;;;;;18.50;13.75;;;;;;;15.19;31.98;95293.97;4916604;29;20071;-87
2022/03/19 00:09:56;;;;;;;19.95;14.43;;;;;;;15.19;31.85;95288.50;4900793;29;20032;-88
2022/03/19 00:12:21;;;;;;;18.08;13.82;;;;;;;15.17;31.95;95290.91;4915103;29;20040;-88
2022/03/19 00:14:47;;;;;;;19.17;14.38;;;;;;;15.16;32.23;95292.13;4903992;29;20047;-87
2022/03/19 00:17:12;;;;;;;20.48;15.30;;;;;;;15.16;31.96;95286.69;4919417;29;20086;-87
2022/03/19 00:19:38;;;;;;;20.13;14.75;;;;;;;15.17;32.31;95288.97;4921100;29;20185;-87
2022/03/19 00:22:04;;;;;;;18.13;14.25;;;;;;;15.16;32.03;95292.88;4916619;29;20510;-87
2022/03/19 00:24:29;;;;;;;18.33;14.00;;;;;;;15.14;32.19;95289.09;4917926;29;20040;-87
2022/03/19 00:26:55;;;;;;;21.05;15.18;;;;;;;15.17;32.10;95285.47;4917442;29;20047;-88
2022/03/19 00:29:20;;;;;;;20.90;14.75;;;;;;;15.16;32.00;95268.38;4919206;29;20365;-87
2022/03/19 00:31:46;;;;;;;19.67;14.73;;;;;;;15.16;32.09;95275.78;4903969;29;20040;-87
2022/03/19 00:34:11;;;;;;;20.83;15.48;;;;;;;15.15;31.94;95271.56;4902595;29;20051;-87
2022/03/19 00:36:37;;;;;;;22.13;15.65;;;;;;;15.15;32.25;95277.00;4902754;29;20039;-87
2022/03/19 00:39:03;;;;;;;21.60;15.63;;;;;;;15.16;31.87;95273.06;4934344;29;20039;-87
2022/03/19 00:41:28;;;;;;;22.52;15.25;;;;;;;15.14;32.46;95270.81;4908457;29;20043;-87
2022/03/19 00:43:54;;;;;;;24.83;16.25;;;;;;;15.14;32.40;95268.06;4920734;29;20032;-87
2022/03/19 00:46:20;;;;;;;21.25;15.98;;;;;;;15.15;32.52;95266.13;4923044;29;20035;-87
2022/03/19 00:48:45;;;;;;;21.55;15.77;;;;;;;15.14;32.25;95270.81;4923328;29;20573;-88
2022/03/19 00:51:11;;;;;;;25.55;16.73;;;;;;;15.13;32.42;95252.94;4919430;28;20024;-88
2022/03/19 00:53:36;;;;;;;22.30;16.05;;;;;;;15.14;32.27;95262.63;4921685;29;20046;-87
2022/03/19 00:56:02;;;;;;;23.30;17.10;;;;;;;15.14;32.33;95267.31;4904605;29;20028;-89
2022/03/19 00:58:27;;;;;;;22.92;17.30;;;;;;;15.13;32.17;95266.56;4921252;29;20080;-87
2022/03/19 01:00:53;;;;;;;24.02;16.13;;;;;;;15.13;31.46;95255.66;4920725;29;20326;-87
2022/03/19 01:03:21;;;;;;;24.15;16.42;;;;;;;15.15;32.28;95264.16;4917995;29;20039;-88
2022/03/19 01:05:47;;;;;;;25.08;18.17;;;;;;;15.14;31.73;95259.91;4919619;29;20130;-87
2022/03/19 01:08:12;;;;;;;21.73;15.68;;;;;;;15.14;32.43;95267.31;4903901;29;20048;-88
2022/03/19 01:10:37;;;;;;;26.27;16.80;;;;;;;15.17;32.00;95252.78;4918734;29;20044;-87
2022/03/19 01:13:04;;;;;;;22.83;16.85;;;;;;;15.11;32.09;95252.63;4901223;29;20040;-88
2022/03/19 01:15:29;;;;;;;21.52;15.73;;;;;;;15.12;32.21;95251.41;4902244;29;20063;-87
2022/03/19 01:17:55;;;;;;;21.15;15.48;;;;;;;15.14;32.14;95259.16;4933709;29;20502;-87
2022/03/19 01:20:20;;;;;;;24.27;17.10;;;;;;;15.12;32.14;95251.41;4917793;29;20521;-87
2022/03/19 01:22:47;;;;;;;23.83;17.15;;;;;;;15.14;32.32;95254.47;4917931;29;20120;-87
2022/03/19 01:25:12;;;;;;;24.38;17.10;;;;;;;15.11;32.62;95252.63;4915991;29;20379;-87
2022/03/19 01:27:38;;;;;;;23.42;16.80;;;;;;;15.11;32.48;95252.63;4933660;29;20279;-87
2022/03/19 01:30:04;;;;;;;22.27;16.00;;;;;;;15.10;32.31;95253.81;4919304;29;20043;-87
2022/03/19 01:32:30;;;;;;;23.35;17.23;;;;;;;15.09;32.48;95249.56;4922139;29;20598;-87
2022/03/19 01:34:55;;;;;;;24.92;17.67;;;;;;;15.09;32.29;95247.63;4936690;29;20051;-87
2022/03/19 01:37:22;;;;;;;24.30;17.10;;;;;;;15.09;32.11;95242.16;4922069;29;20066;-88
2022/03/19 01:39:47;;;;;;;23.08;17.20;;;;;;;15.11;32.58;95243.69;4903487;29;20528;-87
2022/03/19 01:42:22;;;;;;;23.98;16.58;;;;;;;15.13;32.24;95230.38;4900914;29;20417;-87
2022/03/19 01:44:48;;;;;;;22.00;16.20;;;;;;;15.12;32.63;95237.78;4917748;29;20036;-87
2022/03/19 01:47:13;;;;;;;26.52;17.83;;;;;;;15.14;31.96;95242.81;4917701;29;20086;-87
2022/03/19 01:49:39;;;;;;;23.58;17.05;;;;;;;15.09;32.01;95239.44;4919746;29;20032;-87
2022/03/19 01:52:04;;;;;;;23.33;16.95;;;;;;;15.10;32.14;95234.75;4936496;29;20035;-87
2022/03/19 01:54:31;;;;;;;24.52;17.70;;;;;;;15.07;32.50;95241.84;4904089;29;20410;-87
2022/03/19 01:56:59;;;;;;;23.10;17.08;;;;;;;15.11;32.75;95240.97;4935376;29;20398;-89
2022/03/19 01:59:27;;;;;;;23.70;17.05;;;;;;;15.13;31.81;95244.00;4881787;29;20115;-87
2022/03/19 02:01:53;;;;;;;22.27;17.02;;;;;;;15.12;32.40;95237.78;4867807;29;20140;-88
2022/03/19 02:04:21;;;;;;;24.67;17.23;;;;;;;15.09;32.34;95244.88;4865470;29;20462;-87
2022/03/19 02:06:46;;;;;;;23.98;16.95;;;;;;;15.11;32.41;95239.00;4875341;23;20028;-87
2022/03/19 02:09:12;;;;;;;21.45;16.00;;;;;;;15.10;32.34;95234.75;4917352;29;20550;-88
2022/03/19 02:11:37;;;;;;;24.90;17.67;;;;;;;15.11;31.95;95232.78;4918365;29;20048;-88
2022/03/19 02:14:03;;;;;;;23.50;15.57;;;;;;;15.10;32.21;95234.75;4913350;29;20079;-88
2022/03/19 02:16:29;;;;;;;23.23;17.40;;;;;;;15.09;32.04;95223.09;4903346;29;20031;-87
2022/03/19 02:18:57;;;;;;;25.27;17.02;;;;;;;15.08;32.49;95224.31;4917369;29;20036;-87
2022/03/19 02:21:22;;;;;;;24.13;16.85;;;;;;;15.05;32.70;95222.47;4916864;29;20126;-87
2022/03/19 02:26:43;;;;;;;24.65;17.98;;;;;;;15.04;31.59;95203.84;4921055;28;20095;-87
2022/03/19 02:29:09;;;;;;;25.05;17.45;;;;;;;15.03;31.92;95203.09;4916212;28;20575;-87
2022/03/19 02:31:35;;;;;;;23.73;17.15;;;;;;;15.05;32.07;95197.94;4917216;29;20312;-87
2022/03/19 02:34:00;;;;;;;24.65;17.08;;;;;;;15.04;31.25;95188.25;4932863;29;20082;-87
2022/03/19 02:36:26;;;;;;;21.67;16.45;;;;;;;15.03;31.77;95192.19;4915396;29;20036;-87
2022/03/19 02:38:51;;;;;;;24.00;17.85;;;;;;;15.02;32.11;95193.38;4931845;29;20039;-87
2022/03/19 02:41:17;;;;;;;23.92;17.52;;;;;;;15.03;32.00;95196.88;4900354;29;20043;-89
2022/03/19 02:43:42;;;;;;;24.30;16.52;;;;;;;15.03;31.68;95199.59;4905219;29;20044;-87
2022/03/19 02:46:08;;;;;;;23.88;16.67;;;;;;;15.05;31.86;95197.19;4911991;29;20047;-87
2022/03/19 02:48:34;;;;;;;23.10;16.42;;;;;;;15.04;31.78;95196.44;4897710;29;20126;-87
2022/03/19 02:50:59;;;;;;;21.25;16.40;;;;;;;15.02;32.20;95192.63;4882595;29;20033;-87
2022/03/19 02:53:25;;;;;;;24.45;17.17;;;;;;;15.00;32.00;95184.16;4897201;29;20040;-87
2022/03/19 02:55:50;;;;;;;21.70;16.23;;;;;;;15.00;32.12;95182.19;4915478;29;20451;-86
2022/03/19 02:58:15;;;;;;;23.80;15.77;;;;;;;15.00;32.14;95178.69;4902046;29;20389;-87
2022/03/19 03:00:41;;;;;;;25.08;16.88;;;;;;;15.00;31.75;95178.69;4912341;29;20052;-87
2022/03/19 03:03:06;;;;;;;21.10;15.48;;;;;;;15.01;31.69;95175.53;4896438;29;20408;-87
2022/03/19 03:05:33;;;;;;;23.67;16.75;;;;;;;15.01;31.65;95172.81;4905923;29;20056;-87
2022/03/19 03:07:59;;;;;;;22.90;17.65;;;;;;;14.99;31.96;95167.03;4896770;29;20044;-87
2022/03/19 03:10:24;;;;;;;23.50;17.17;;;;;;;14.98;31.55;95153.88;4896744;29;20484;-87
2022/03/19 03:12:49;;;;;;;21.83;15.93;;;;;;;14.99;31.73;95144.50;4898887;29;20036;-87
2022/03/19 03:15:15;;;;;;;20.42;15.05;;;;;;;15.00;32.08;95148.75;4905517;29;20043;-87
2022/03/19 03:17:40;;;;;;;23.33;16.52;;;;;;;15.01;31.67;95148.31;4933039;29;20047;-87
2022/03/19 03:20:06;;;;;;;24.05;17.38;;;;;;;15.00;31.15;95162.34;4915574;29;20048;-87
2022/03/19 03:22:32;;;;;;;20.67;15.93;;;;;;;15.01;30.98;95150.25;4916974;29;20075;-88
2022/03/19 03:24:57;;;;;;;23.02;15.20;;;;;;;15.00;31.85;95159.63;4897486;29;20037;-87
2022/03/19 03:27:23;;;;;;;19.70;15.15;;;;;;;14.99;31.63;95171.72;4897643;29;20032;-87
2022/03/19 03:29:48;;;;;;;21.52;15.57;;;;;;;15.01;31.41;95161.91;4897625;29;20117;-88
2022/03/19 03:32:13;;;;;;;21.25;16.00;;;;;;;14.98;31.74;95157.34;4914142;29;20044;-87
2022/03/19 03:34:40;;;;;;;21.88;16.48;;;;;;;14.96;31.50;95148.09;4900028;29;20036;-87
2022/03/19 03:37:05;;;;;;;22.88;16.27;;;;;;;14.97;30.93;95144.19;4917893;29;20035;-87
2022/03/19 03:39:30;;;;;;;19.35;14.82;;;;;;;14.99;31.53;95139.81;4932796;29;20051;-87
2022/03/19 03:41:56;;;;;;;19.33;14.77;;;;;;;14.99;31.63;95139.06;4916426;29;20048;-87
2022/03/19 03:44:21;;;;;;;19.42;13.57;;;;;;;14.97;31.58;95144.19;4932571;29;20437;-87
2022/03/19 03:46:48;;;;;;;20.00;14.75;;;;;;;14.96;31.81;95137.22;4915432;29;20040;-87
2022/03/19 03:49:13;;;;;;;21.30;14.77;;;;;;;14.98;31.57;95138.28;4933471;29;20363;-87
2022/03/19 03:51:39;;;;;;;18.17;13.85;;;;;;;14.98;31.70;95137.53;4905131;29;20047;-87
2022/03/19 03:54:05;;;;;;;21.13;15.30;;;;;;;14.98;31.50;95137.53;4905633;29;20032;-88
2022/03/19 03:56:31;;;;;;;19.15;14.60;;;;;;;14.96;31.70;95135.25;4920172;29;20044;-87
2022/03/19 03:58:56;;;;;;;20.98;15.55;;;;;;;14.96;30.90;95137.22;4919761;29;20055;-87
2022/03/19 04:01:22;;;;;;;22.35;15.38;;;;;;;14.96;31.28;95131.78;4919445;28;20043;-88
2022/03/19 04:03:47;;;;;;;18.58;14.18;;;;;;;14.94;31.39;95139.66;4922439;29;20046;-87
2022/03/19 04:06:13;;;;;;;22.52;15.27;;;;;;;14.92;31.05;95131.94;4923765;29;20036;-87
2022/03/19 04:08:38;;;;;;;17.75;14.13;;;;;;;14.95;31.75;95135.69;4919116;29;20106;-87
2022/03/19 04:11:04;;;;;;;20.13;14.93;;;;;;;14.97;30.81;95130.56;4917767;29;20051;-87
2022/03/19 04:13:29;;;;;;;22.08;15.63;;;;;;;14.95;31.51;95133.72;4919048;29;20040;-87
2022/03/19 04:15:54;;;;;;;19.35;14.45;;;;;;;14.95;31.55;95141.91;4915993;29;20558;-87
2022/03/19 04:18:20;;;;;;;20.13;14.55;;;;;;;14.98;30.82;95135.56;4899067;29;20044;-87
2022/03/19 04:20:46;;;;;;;19.33;15.13;;;;;;;14.96;31.47;95120.88;4900229;29;20044;-89
2022/03/19 04:23:11;;;;;;;19.65;15.10;;;;;;;14.95;31.09;95131.00;4899882;29;20051;-87
2022/03/19 04:25:37;;;;;;;22.25;15.82;;;;;;;14.92;30.82;95129.19;4899933;29;20095;-87
2022/03/19 04:28:03;;;;;;;20.00;15.07;;;;;;;14.95;30.63;95122.09;4917195;28;20099;-87
2022/03/19 04:30:29;;;;;;;19.05;14.75;;;;;;;14.93;31.49;95119.06;4918448;29;20035;-87
2022/03/19 04:32:59;;;;;;;19.45;14.52;;;;;;;14.95;31.28;95119.34;4920569;29;20126;-87
2022/03/19 04:38:10;;;;;;;20.55;14.40;;;;;;;14.94;31.10;95113.16;4921699;29;20043;-87
2022/03/19 04:40:35;;;;;;;18.10;13.88;;;;;;;14.91;31.46;95116.78;4915667;29;20088;-87
2022/03/19 04:43:01;;;;;;;16.40;12.60;;;;;;;14.91;31.13;95121.47;4936332;29;20043;-87
2022/03/19 04:45:26;;;;;;;19.13;14.57;;;;;;;14.91;31.17;95116.78;4901274;29;20040;-86
2022/03/19 04:47:52;;;;;;;19.40;14.10;;;;;;;14.91;31.18;95116.78;4902090;29;20039;-87
2022/03/19 04:50:18;;;;;;;21.48;14.20;;;;;;;14.93;30.95;95113.63;4934668;29;20048;-87
2022/03/19 04:52:43;;;;;;;19.52;13.98;;;;;;;14.92;31.11;95117.56;4902506;29;20054;-86
2022/03/19 04:55:09;;;;;;;19.83;14.48;;;;;;;14.91;31.38;95111.34;4917192;29;20526;-87
2022/03/19 04:57:35;;;;;;;17.35;12.90;;;;;;;14.93;30.97;95108.94;4908985;29;20071;-88
2022/03/19 05:00:00;;;;;;;20.13;13.77;;;;;;;14.93;31.03;95105.47;4933706;29;20111;-87
2022/03/19 05:02:26;;;;;;;19.90;13.95;;;;;;;14.92;30.93;95104.69;4916946;29;20044;-88
2022/03/19 05:04:51;;;;;;;19.52;13.95;;;;;;;14.91;30.88;95108.63;4918055;29;20180;-87
2022/03/19 05:07:19;;;;;;;18.38;13.43;;;;;;;14.92;30.86;95103.94;4914487;29;20112;-88
2022/03/19 05:12:33;;;;;;;18.35;13.38;;;;;;;14.93;30.57;95108.19;4900548;29;20055;-87
2022/03/19 05:14:59;;;;;;;19.38;13.75;;;;;;;14.91;31.18;95099.69;4899328;29;20138;-87
2022/03/19 05:17:24;;;;;;;18.70;13.57;;;;;;;14.92;31.15;95101.97;4903112;28;20036;-87
2022/03/19 05:19:50;;;;;;;17.58;13.65;;;;;;;14.91;31.08;95096.97;4932815;29;20463;-88
2022/03/19 05:22:15;;;;;;;19.77;13.90;;;;;;;14.92;30.46;95095.78;4917301;28;20463;-87
2022/03/19 05:24:41;;;;;;;18.13;12.80;;;;;;;14.90;31.02;95096.22;4933741;29;20048;-87
2022/03/19 05:27:08;;;;;;;18.00;12.80;;;;;;;14.90;31.36;95101.66;4917417;29;20048;-87
2022/03/19 05:29:33;;;;;;;19.10;13.40;;;;;;;14.91;30.22;95097.72;4917644;29;20127;-87
2022/03/19 05:31:59;;;;;;;18.10;13.32;;;;;;;14.93;30.49;95105.47;4932242;29;20083;-87
2022/03/19 05:34:30;;;;;;;17.60;12.98;;;;;;;14.91;30.78;95096.97;4917922;29;20415;-87
2022/03/19 05:36:56;;;;;;;18.85;13.30;;;;;;;14.92;30.98;95096.53;4918664;29;20095;-87
2022/03/19 05:39:21;;;;;;;15.73;11.70;;;;;;;14.89;30.79;95102.88;4913264;29;20518;-87
2022/03/19 05:41:46;;;;;;;17.63;12.77;;;;;;;14.91;30.92;95099.69;4933960;29;20039;-87
2022/03/19 05:44:12;;;;;;;17.05;13.23;;;;;;;14.92;31.09;95095.78;4913190;29;20043;-87
2022/03/19 05:46:37;;;;;;;17.33;12.80;;;;;;;14.92;30.73;95103.94;4901018;29;20426;-90
2022/03/19 05:49:03;;;;;;;17.48;13.18;;;;;;;14.92;30.79;95098.50;4930844;28;20048;-88
2022/03/19 05:51:28;;;;;;;17.63;12.48;;;;;;;14.92;31.04;95088.38;4931771;29;20035;-87
2022/03/19 05:53:53;;;;;;;17.55;12.48;;;;;;;14.92;30.65;95091.09;4933233;29;20054;-87
2022/03/19 05:56:19;;;;;;;17.25;12.45;;;;;;;14.94;30.62;95091.38;4932636;28;20039;-87
2022/03/19 05:58:44;;;;;;;17.02;12.60;;;;;;;14.92;30.10;95093.81;4932553;29;20036;-87
2022/03/19 06:01:11;;;;;;;16.42;11.63;;;;;;;14.94;30.65;95096.09;4916616;29;20123;-87
2022/03/19 06:03:36;;;;;;;16.50;11.38;;;;;;;14.96;30.82;95099.84;4932859;29;20043;-86
2022/03/19 06:06:03;;;;;;;17.10;11.95;;;;;;;14.97;30.10;95103.34;4933016;29;20052;-87
2022/03/19 06:08:29;;;;;;;16.20;11.35;;;;;;;14.99;30.46;95095.47;4932688;29;20115;-87
2022/03/19 06:10:56;;;;;;;15.98;12.25;;;;;;;14.98;30.83;95092.00;4932199;29;20527;-87
2022/03/19 06:13:22;;;;;;;13.80;11.23;;;;;;;14.99;30.88;95096.25;4914407;29;20621;-87
2022/03/19 06:15:47;;;;;;;15.55;11.75;;;;;;;15.01;30.47;95099.28;4901798;29;20048;-87
2022/03/19 06:18:12;;;;;;;15.20;11.15;;;;;;;14.98;30.32;95092.00;4916177;29;20047;-87
2022/03/19 06:20:38;;;;;;;15.80;11.32;;;;;;;15.01;30.38;95091.09;4917507;29;20043;-88
2022/03/19 06:23:03;;;;;;;17.15;12.60;;;;;;;15.00;30.63;95095.03;4915602;29;20055;-87
2022/03/19 06:25:29;;;;;;;14.55;10.80;;;;;;;15.02;30.28;95092.63;4931201;29;20047;-87
2022/03/19 06:27:55;;;;;;;15.50;11.88;;;;;;;15.02;30.68;95087.19;4915769;29;20040;-88
2022/03/19 06:30:20;;;;;;;15.27;11.63;;;;;;;15.02;30.33;95076.28;4899444;29;20051;-88
2022/03/19 06:32:46;;;;;;;16.80;12.45;;;;;;;15.06;30.53;95081.59;4915208;29;20051;-87
2022/03/19 06:37:19;;;;;;;14.35;11.35;;;;;;;15.06;30.12;95079.63;4914819;29;20063;-87
2022/03/19 06:37:56;;;;;;;13.73;10.38;;;;;;;15.07;30.38;95078.44;4918720;29;20056;-87
2022/03/19 06:40:22;;;;;;;15.25;10.75;;;;;;;15.06;30.58;95071.47;4930837;29;20040;-87
2022/03/19 06:42:48;;;;;;;14.43;10.30;;;;;;;15.06;30.49;95066.03;4915534;29;20475;-87
2022/03/19 06:45:14;;;;;;;12.88;9.90;;;;;;;15.12;30.52;95076.34;4927969;29;20074;-87
2022/03/19 06:47:39;;;;;;;15.27;10.23;;;;;;;15.11;30.19;95066.66;4921870;29;20039;-87
2022/03/19 06:50:05;;;;;;;13.88;10.77;;;;;;;15.14;29.88;95063.78;4914965;29;20411;-87
2022/03/19 06:52:34;;;;;;;13.27;10.40;;;;;;;15.14;30.31;95066.50;4915300;29;20028;-87
2022/03/19 06:54:59;;;;;;;14.43;10.00;;;;;;;15.16;30.04;95053.16;4915970;29;20115;-87
2022/03/19 06:57:25;;;;;;;13.60;9.98;;;;;;;15.17;30.12;95053.94;4915226;29;20083;-87
2022/03/19 06:59:50;;;;;;;14.93;10.73;;;;;;;15.17;30.66;95056.66;4901350;29;20035;-87
2022/03/19 07:02:16;;;;;;;14.98;10.70;;;;;;;15.17;30.32;95054.69;4913724;29;20557;-87
2022/03/19 07:04:41;;;;;;;14.63;10.10;;;;;;;15.17;30.01;95065.59;4915095;29;20043;-87
2022/03/19 07:07:06;;;;;;;10.43;8.75;;;;;;;15.18;30.78;95067.09;4914312;29;20538;-87
2022/03/19 07:09:32;;;;;;;12.13;9.35;;;;;;;15.20;30.57;95059.25;4914971;29;20035;-86
2022/03/19 07:11:59;;;;;;;12.35;9.15;;;;;;;15.21;30.53;95066.22;4915337;29;20040;-87
2022/03/19 07:14:25;;;;;;;11.65;9.18;;;;;;;15.23;30.40;95071.22;4900778;28;20063;-88
2022/03/19 07:16:51;;;;;;;11.75;9.25;;;;;;;15.25;29.93;95057.91;4933904;29;20051;-87
2022/03/19 07:19:16;;;;;;;12.40;9.55;;;;;;;15.23;30.46;95061.06;4916569;28;20110;-87
2022/03/19 07:21:42;;;;;;;11.60;9.50;;;;;;;15.24;30.85;95059.09;4912590;29;20115;-87
2022/03/19 07:24:07;;;;;;;12.02;9.63;;;;;;;15.21;30.71;95055.31;4897077;29;20377;-88
2022/03/19 07:26:33;;;;;;;13.70;9.90;;;;;;;15.19;30.61;95055.00;4901448;29;20051;-87
2022/03/19 07:28:59;;;;;;;11.90;9.57;;;;;;;15.19;30.21;95049.56;4900549;29;20454;-87
2022/03/19 07:31:24;;;;;;;12.10;9.40;;;;;;;15.20;30.48;95070.13;4895253;29;20542;-87
2022/03/19 07:33:50;;;;;;;11.40;9.30;;;;;;;15.20;30.44;95072.88;4935588;29;20043;-87
2022/03/19 07:36:18;;;;;;;12.40;9.57;;;;;;;15.21;30.24;95070.91;4920209;29;20055;-88
2022/03/19 07:38:43;;;;;;;11.75;9.10;;;;;;;15.24;30.72;95075.44;4919925;29;20039;-87
2022/03/19 07:43:52;;;;;;;14.88;9.40;;;;;;;15.25;30.10;95063.34;4916922;29;20590;-91
2022/03/19 07:46:20;;;;;;;17.00;11.40;;;;;;;15.23;28.93;95057.59;4912655;28;20032;-87
2022/03/19 07:48:46;;;;;;;19.00;12.73;;;;;;;15.02;27.98;95049.06;4918807;29;20570;-87
2022/03/19 07:51:11;;;;;;;19.75;14.98;;;;;;;14.95;27.02;95052.03;4902232;29;20031;-87
2022/03/19 07:53:39;;;;;;;29.48;16.58;;;;;;;14.89;26.45;95047.66;4918942;29;20047;-87
2022/03/19 07:56:06;;;;;;;28.90;17.33;;;;;;;14.81;26.13;95040.94;4903260;29;20043;-90
2022/03/19 07:58:31;;;;;;;36.08;16.52;;;;;;;14.73;25.71;95046.66;4918888;29;20043;-89
2022/03/19 08:00:57;;;;;;;34.05;21.17;;;;;;;14.78;26.45;95031.72;4918619;29;20042;-91
2022/03/19 08:03:22;;;;;;;33.00;19.38;;;;;;;14.88;26.93;95022.38;4904394;29;20050;-89
2022/03/19 08:05:47;;;;;;;46.28;21.70;;;;;;;14.91;25.79;95037.06;4902500;29;20121;-92
2022/03/19 08:08:13;;;;;;;31.85;20.83;;;;;;;14.91;27.64;95035.09;4904673;29;20036;-90
2022/03/19 08:10:39;;;;;;;23.92;16.90;;;;;;;14.97;28.62;95027.84;4901928;29;20040;-90
2022/03/19 08:13:05;;;;;;;22.85;14.50;;;;;;;14.99;28.59;95025.44;4932056;29;20103;-89
2022/03/19 08:15:31;;;;;;;25.75;15.57;;;;;;;15.03;28.66;95023.34;4901924;29;20127;-91
2022/03/19 08:17:57;;;;;;;24.52;15.07;;;;;;;15.05;28.88;95014.72;4917938;29;20047;-91
2022/03/19 08:20:23;;;;;;;22.67;15.00;;;;;;;15.07;28.91;95017.75;4916927;29;20051;-88
2022/03/19 08:22:49;;;;;;;22.77;14.23;;;;;;;15.09;28.77;95015.34;4914028;29;20052;-91
2022/03/19 08:25:14;;;;;;;20.27;13.40;;;;;;;15.11;28.83;95012.16;4897692;29;20456;-91
2022/03/19 08:27:40;;;;;;;25.50;13.23;;;;;;;15.16;28.86;95017.75;4883123;29;20040;-90
2022/03/19 08:30:06;;;;;;;17.05;12.77;;;;;;;15.17;28.68;95015.78;4882407;29;20092;-90
2022/03/19 08:32:32;;;;;;;16.67;11.98;;;;;;;15.20;29.06;95004.75;4907270;29;20036;-91
2022/03/19 08:34:57;;;;;;;15.48;11.55;;;;;;;15.22;29.35;95004.31;4916816;29;20040;-91
2022/03/19 08:37:23;;;;;;;17.25;12.00;;;;;;;15.24;29.32;95010.81;4916988;28;20387;-91
2022/03/19 08:42:33;;;;;;;18.38;12.73;;;;;;;15.26;29.31;95000.25;4919214;29;20039;-93
2022/03/19 08:44:59;;;;;;;19.85;12.05;;;;;;;15.27;29.57;94998.28;4915136;29;20039;-90
2022/03/19 08:47:24;;;;;;;16.38;11.48;;;;;;;15.27;28.85;94999.03;4916587;29;20043;-91
2022/03/19 08:49:50;;;;;;;14.45;11.68;;;;;;;15.27;29.30;94990.84;4932952;29;20040;-91
2022/03/19 08:52:15;;;;;;;17.27;12.43;;;;;;;15.24;28.96;94997.22;4932158;28;20488;-92
2022/03/19 08:54:41;;;;;;;14.95;10.65;;;;;;;15.25;29.54;94985.09;4916922;29;20050;-90
2022/03/19 08:57:06;;;;;;;15.95;11.48;;;;;;;15.23;29.04;94994.94;4916303;28;20051;-89
2022/03/19 08:59:31;;;;;;;18.73;14.38;;;;;;;15.11;26.96;94991.13;4917305;29;20403;-91
2022/03/19 09:01:58;;;;;;;29.67;15.88;;;;;;;15.04;26.22;94985.97;4932980;29;20392;-90
2022/03/19 09:04:24;;;;;;;32.35;17.33;;;;;;;14.91;26.00;94990.78;4916625;28;20032;-92
2022/03/19 09:06:49;;;;;;;28.70;16.67;;;;;;;14.95;26.10;94975.03;4917275;29;20099;-92
2022/03/19 09:09:17;;;;;;;25.15;16.50;;;;;;;14.93;26.90;94975.50;4916715;28;20487;-90
2022/03/19 09:11:42;;;;;;;26.13;16.77;;;;;;;14.97;26.32;94975.34;4916976;29;20047;-91
2022/03/19 09:14:08;;;;;;;23.92;17.33;;;;;;;15.01;26.40;94965.84;4916360;29;20040;-92
2022/03/19 09:16:33;;;;;;;21.70;14.60;;;;;;;15.05;28.18;94969.19;4901391;29;20047;-93
2022/03/19 09:18:59;;;;;;;20.90;14.30;;;;;;;15.09;28.66;94963.59;4901154;29;20051;-91
2022/03/19 09:21:24;;;;;;;21.23;14.23;;;;;;;15.11;28.49;94972.06;4900478;29;20043;-89
2022/03/19 09:23:50;;;;;;;19.15;14.25;;;;;;;15.13;28.38;94963.44;4900989;29;20036;-90
2022/03/19 09:26:16;;;;;;;15.95;13.50;;;;;;;15.15;28.94;94967.25;4900528;29;20047;-92
2022/03/19 09:28:42;;;;;;;19.80;12.88;;;;;;;15.18;28.83;94951.94;4901231;29;20048;-91
2022/03/19 09:31:07;;;;;;;18.73;13.57;;;;;;;15.19;28.59;94972.53;4900325;29;20046;-91
2022/03/19 09:33:33;;;;;;;23.23;13.88;;;;;;;15.20;28.96;94957.69;4904534;29;20032;-91
2022/03/19 09:36:01;;;;;;;18.05;12.55;;;;;;;15.21;28.96;94959.22;4916296;29;20039;-91
2022/03/19 09:38:28;;;;;;;20.42;14.50;;;;;;;15.20;29.00;94949.53;4916288;29;20098;-90
2022/03/19 09:40:56;;;;;;;19.13;13.05;;;;;;;15.22;29.02;94947.09;4916900;29;20549;-90
2022/03/19 09:43:22;;;;;;;19.45;14.68;;;;;;;15.23;28.75;94951.34;4901641;29;20526;-90
2022/03/19 09:45:48;;;;;;;18.17;12.18;;;;;;;15.24;28.81;94947.41;4898707;29;20083;-92
2022/03/19 09:48:13;;;;;;;18.08;12.48;;;;;;;15.24;28.81;94931.81;4915416;29;20035;-92
2022/03/19 09:50:39;;;;;;;19.15;14.07;;;;;;;15.23;28.09;94937.72;4900784;29;20085;-92
2022/03/19 09:53:04;;;;;;;17.38;13.15;;;;;;;15.25;28.89;94927.13;4915280;28;20467;-92
2022/03/19 09:55:32;;;;;;;21.55;13.50;;;;;;;15.28;28.18;94929.72;4895340;29;20123;-90
2022/03/19 09:57:57;;;;;;;16.83;13.00;;;;;;;15.26;27.83;94932.13;4880691;29;20055;-92
2022/03/19 10:00:24;;;;;;;14.02;11.38;;;;;;;15.27;28.62;94928.19;4879344;29;20036;-90
2022/03/19 10:02:55;;;;;;;15.80;11.90;;;;;;;15.30;29.42;94923.81;4880398;29;20092;-90
2022/03/19 10:10:49;;;;;;;17.20;12.32;;;;;;;15.28;28.70;94918.06;4885032;29;20100;-91
2022/03/19 10:13:15;;;;;;;17.55;13.30;;;;;;;15.28;28.16;94916.09;4879645;29;20076;-91
2022/03/19 10:15:41;;;;;;;18.13;12.85;;;;;;;15.29;28.05;94925.03;4879629;29;20048;-92
2022/03/19 10:18:08;;;;;;;18.90;12.85;;;;;;;15.31;28.14;94909.75;4879121;29;20123;-91
2022/03/19 10:20:36;;;;;;;16.95;12.25;;;;;;;15.31;28.36;94911.72;4879710;29;20055;-91
2022/03/19 10:23:02;;;;;;;19.63;13.02;;;;;;;15.31;28.22;94908.97;4880654;29;20055;-93
2022/03/19 10:25:27;;;;;;;17.85;11.45;;;;;;;15.33;28.93;94901.88;4865258;29;20040;-91
2022/03/19 10:27:53;;;;;;;14.75;11.60;;;;;;;15.35;28.70;94906.88;4915698;29;20047;-91
2022/03/19 10:30:21;;;;;;;15.30;11.32;;;;;;;15.34;28.04;94895.22;4915126;28;20039;-90
2022/03/19 10:32:48;;;;;;;14.25;11.60;;;;;;;15.36;28.52;94895.53;4915701;29;20040;-92
2022/03/19 10:35:32;;;;;;;14.35;11.15;;;;;;;15.37;29.39;94894.28;4914476;29;20036;-93
2022/03/19 10:37:58;;;;;;;14.38;12.10;;;;;;;15.35;28.11;94896.72;4900962;29;20044;-91
2022/03/19 10:40:41;;;;;;;21.50;13.35;;;;;;;15.35;27.89;94893.25;4911887;29;20484;-90
2022/03/19 10:43:08;;;;;;;18.48;13.20;;;;;;;15.31;28.31;94892.63;4933524;29;20044;-89
2022/03/19 10:45:46;;;;;;;17.88;13.13;;;;;;;15.32;27.97;94878.56;4908351;29;20503;-89
2022/03/19 10:48:12;;;;;;;16.55;13.73;;;;;;;15.33;28.22;94882.78;4899842;29;20055;-89
2022/03/19 10:50:41;;;;;;;21.30;12.48;;;;;;;15.33;28.00;94869.19;4931035;29;20118;-92
2022/03/19 10:53:06;;;;;;;20.48;13.35;;;;;;;15.23;28.01;94870.38;4929998;29;20489;-91
2022/03/19 10:55:32;;;;;;;22.00;15.65;;;;;;;15.23;27.08;94856.00;4930551;29;20067;-91
2022/03/19 10:57:57;;;;;;;23.75;14.32;;;;;;;15.21;27.26;94864.63;4899210;29;20521;-90
2022/03/19 11:00:23;;;;;;;21.10;14.43;;;;;;;15.23;27.54;94867.66;4899125;29;20044;-90
2022/03/19 11:02:49;;;;;;;26.58;15.55;;;;;;;15.24;27.35;94861.00;4899673;29;20403;-91
2022/03/19 11:05:18;;;;;;;18.02;13.50;;;;;;;15.28;28.86;94869.78;4900493;29;20039;-90
2022/03/19 11:07:44;;;;;;;24.33;12.75;;;;;;;15.27;29.13;94865.53;4899645;29;20043;-91
2022/03/19 11:10:09;;;;;;;26.83;14.48;;;;;;;15.28;27.83;94858.13;4914864;29;20537;-90
2022/03/19 11:12:35;;;;;;;21.25;12.02;;;;;;;15.32;28.40;94856.00;4915297;29;20059;-90
2022/03/19 11:15:03;;;;;;;18.63;12.68;;;;;;;15.32;28.15;94854.03;4914215;29;20070;-91
2022/03/19 11:17:32;;;;;;;21.85;13.43;;;;;;;15.32;27.63;94845.09;4914553;29;20255;-90
2022/03/19 11:20:04;;;;;;;17.20;12.43;;;;;;;15.33;28.87;94846.63;4915557;29;20044;-93
2022/03/19 11:22:39;;;;;;;24.48;14.27;;;;;;;15.34;28.01;94838.00;4915125;29;20187;-90
2022/03/19 11:25:13;;;;;;;19.25;11.80;;;;;;;15.38;28.75;94829.63;4899639;29;20035;-90
2022/03/19 11:27:41;;;;;;;16.55;11.20;;;;;;;15.35;29.07;94823.16;4911742;29;20515;-90
2022/03/19 11:30:14;;;;;;;19.95;12.52;;;;;;;15.35;27.94;94822.41;4896020;29;20037;-90